Time;durP1;ratioP1;P1;durP2;ratioP2;P2;SDS_P1;SDS_P2;PMS_P1;PMS_P2;Temp;Humidity;BMP_temperature;BMP_pressure;BME280_temperature;BME280_humidity;BME280_pressure;Samples;Min_cycle;Max_cycle;Signal;HPM_P1;HPM_P2
2022/11/02 00:00:19;;;;;;;;;;;13.00;80.00;;;;;;5040642;28;1578;-89
2022/11/02 00:02:48;;;;;;;;;;;13.00;78.80;;;;;;5033929;28;1528;-88
2022/11/02 00:05:22;;;;;;;;;;;13.00;79.70;;;;;;5035632;28;1565;-89
2022/11/02 00:07:50;;;;;;;;;;;13.00;80.00;;;;;;5038801;28;1584;-90
2022/11/02 00:10:19;;;;;;;;;;;13.00;79.40;;;;;;5025772;28;1674;-91
2022/11/02 00:12:48;;;;;;;;;;;13.00;80.10;;;;;;5036050;28;1557;-91
2022/11/02 00:15:17;;;;;;;;;;;13.30;79.20;;;;;;5048144;28;1911;-89
2022/11/02 00:17:47;;;;;;;;;;;13.10;80.50;;;;;;5037709;28;1551;-89
2022/11/02 00:20:18;;;;;;;;;;;13.30;80.70;;;;;;5036404;28;1543;-91
2022/11/02 00:22:46;;;;;;;;;;;13.10;80.00;;;;;;5036153;28;1521;-88
2022/11/02 00:25:18;;;;;;;;;;;13.20;80.20;;;;;;5035116;28;1238;-91
2022/11/02 00:27:45;;;;;;;;;;;13.10;79.90;;;;;;5041268;28;1729;-90
2022/11/02 00:30:13;;;;;;;;;;;13.10;79.60;;;;;;5039367;28;1612;-92
2022/11/02 00:32:41;;;;;;;;;;;13.20;79.70;;;;;;5037663;28;1585;-90
2022/11/02 00:35:09;;;;;;;;;;;13.20;79.70;;;;;;5040293;28;2000;-91
2022/11/02 00:37:39;;;;;;;;;;;13.10;80.50;;;;;;5035007;28;1523;-90
2022/11/02 00:40:07;;;;;;;;;;;13.10;80.10;;;;;;5033839;28;1347;-89
2022/11/02 00:42:35;;;;;;;;;;;13.10;79.60;;;;;;5034099;28;1697;-90
2022/11/02 00:45:03;;;;;;;;;;;13.20;79.20;;;;;;5035300;28;1690;-90
2022/11/02 00:47:32;;;;;;;;;;;13.10;79.60;;;;;;5035140;28;1565;-89
2022/11/02 00:49:59;;;;;;;;;;;13.40;79.00;;;;;;5050286;28;1590;-89
2022/11/02 00:52:28;;;;;;;;;;;13.30;79.00;;;;;;5047023;28;1564;-90
2022/11/02 00:54:57;;;;;;;;;;;13.20;79.30;;;;;;5050672;28;1883;-88
2022/11/02 00:57:25;;;;;;;;;;;13.10;81.00;;;;;;5053625;28;1577;-90
2022/11/02 00:59:53;;;;;;;;;;;13.10;80.00;;;;;;5054795;28;1552;-91
2022/11/02 01:02:20;;;;;;;;;;;13.00;79.30;;;;;;5054639;28;1774;-91
2022/11/02 01:04:48;;;;;;;;;;;13.40;79.40;;;;;;5054620;28;1558;-89
2022/11/02 01:07:16;;;;;;;;;;;13.10;79.90;;;;;;5055009;28;1614;-90
2022/11/02 01:09:44;;;;;;;;;;;13.10;79.10;;;;;;5054456;28;1605;-89
2022/11/02 01:12:13;;;;;;;;;;;13.00;79.40;;;;;;5053742;28;1512;-89
2022/11/02 01:14:41;;;;;;;;;;;13.20;80.40;;;;;;5053880;28;1956;-90
2022/11/02 01:17:09;;;;;;;;;;;13.30;79.80;;;;;;5052606;28;1584;-88
2022/11/02 01:19:37;;;;;;;;;;;13.10;79.00;;;;;;5052851;28;1567;-90
2022/11/02 01:22:04;;;;;;;;;;;13.00;79.60;;;;;;5052065;28;1567;-89
2022/11/02 01:24:32;;;;;;;;;;;13.10;78.60;;;;;;5054498;28;1044;-90
2022/11/02 01:27:02;;;;;;;;;;;13.30;80.90;;;;;;5055187;28;1544;-89
2022/11/02 01:29:32;;;;;;;;;;;13.20;79.10;;;;;;5052869;28;1571;-89
2022/11/02 01:31:59;;;;;;;;;;;12.80;80.90;;;;;;5052803;28;1618;-88
2022/11/02 01:34:28;;;;;;;;;;;13.10;79.80;;;;;;5052165;28;1583;-88
2022/11/02 01:36:57;;;;;;;;;;;13.10;80.00;;;;;;5051369;28;2013;-89
2022/11/02 01:39:25;;;;;;;;;;;12.70;80.20;;;;;;5040565;28;1513;-90
2022/11/02 01:41:54;;;;;;;;;;;12.90;80.10;;;;;;5045320;28;1597;-91
2022/11/02 01:44:29;;;;;;;;;;;12.70;80.90;;;;;;5048225;28;1622;-90
2022/11/02 01:47:01;;;;;;;;;;;12.40;81.70;;;;;;5052412;28;1563;-90
2022/11/02 01:49:31;;;;;;;;;;;12.70;81.30;;;;;;5046893;28;1298;-91
2022/11/02 01:52:02;;;;;;;;;;;12.70;81.00;;;;;;5047520;28;1590;-90
2022/11/02 01:54:31;;;;;;;;;;;12.70;81.30;;;;;;5045181;28;1687;-88
2022/11/02 01:57:02;;;;;;;;;;;12.70;81.40;;;;;;5038462;28;1906;-90
2022/11/02 01:59:33;;;;;;;;;;;12.60;81.30;;;;;;5038896;28;1516;-89
2022/11/02 02:02:04;;;;;;;;;;;13.00;81.60;;;;;;5044298;28;1441;-89
2022/11/02 02:04:33;;;;;;;;;;;12.70;81.30;;;;;;5039313;28;1531;-89
2022/11/02 02:07:01;;;;;;;;;;;12.80;82.20;;;;;;5039526;28;1515;-91
2022/11/02 02:09:29;;;;;;;;;;;13.00;81.80;;;;;;5038764;28;1777;-91
2022/11/02 02:11:57;;;;;;;;;;;13.00;80.50;;;;;;5039575;28;1671;-89
2022/11/02 02:21:03;;;;;;;;;;;12.90;81.30;;;;;;5009030;28;1690;-74
2022/11/02 02:23:39;;;;;;;;;;;12.90;81.40;;;;;;5020992;28;1146;-75
2022/11/02 02:26:25;;;;;;;;;;;12.90;81.50;;;;;;5017618;28;1087;-72
2022/11/02 02:28:58;;;;;;;;;;;13.00;81.10;;;;;;4985453;28;1138;-73
2022/11/02 02:31:30;;;;;;;;;;;13.00;81.40;;;;;;5012643;28;1387;-71
2022/11/02 02:34:00;;;;;;;;;;;13.00;81.10;;;;;;5010897;28;1054;-71
2022/11/02 02:36:31;;;;;;;;;;;13.00;80.80;;;;;;5007112;28;2062;-71
2022/11/02 02:39:00;;;;;;;;;;;13.00;81.60;;;;;;5003597;28;1072;-72
2022/11/02 02:41:31;;;;;;;;;;;13.10;81.00;;;;;;5004903;28;1302;-71
2022/11/02 02:44:02;;;;;;;;;;;13.00;80.80;;;;;;5002606;28;1141;-72
2022/11/02 02:46:32;;;;;;;;;;;13.10;80.80;;;;;;5001699;28;962;-72
2022/11/02 02:49:03;;;;;;;;;;;13.10;81.00;;;;;;5008131;28;1282;-71
2022/11/02 02:51:32;;;;;;;;;;;13.10;80.70;;;;;;5009758;28;1329;-71
2022/11/02 02:54:02;;;;;;;;;;;13.10;81.40;;;;;;5011339;28;2043;-70
2022/11/02 02:56:31;;;;;;;;;;;13.10;81.80;;;;;;5012642;28;2083;-72
2022/11/02 02:59:02;;;;;;;;;;;13.10;82.30;;;;;;5008037;28;1070;-71
2022/11/02 03:01:30;;;;;;;;;;;13.10;82.00;;;;;;5008319;28;1220;-71
2022/11/02 03:03:58;;;;;;;;;;;13.30;82.30;;;;;;5009306;28;1218;-71
2022/11/02 03:06:27;;;;;;;;;;;13.30;82.00;;;;;;5007356;28;2048;-71
2022/11/02 03:08:58;;;;;;;;;;;13.00;82.20;;;;;;5007262;28;1108;-71
2022/11/02 03:11:27;;;;;;;;;;;13.10;82.80;;;;;;5007590;28;1352;-70
2022/11/02 03:14:01;;;;;;;;;;;13.00;82.90;;;;;;5013315;28;1046;-70
2022/11/02 03:16:38;;;;;;;;;;;13.00;83.00;;;;;;5012903;28;1985;-72
2022/11/02 03:19:11;;;;;;;;;;;13.10;82.60;;;;;;5014351;28;1531;-69
2022/11/02 03:21:40;;;;;;;;;;;13.00;82.90;;;;;;5009883;28;1237;-71
2022/11/02 03:24:13;;;;;;;;;;;13.00;83.40;;;;;;5005443;28;1415;-70
2022/11/02 03:26:43;;;;;;;;;;;13.00;83.50;;;;;;5010093;28;1108;-73
2022/11/02 03:29:13;;;;;;;;;;;12.90;84.80;;;;;;5011540;28;1065;-70
2022/11/02 03:31:42;;;;;;;;;;;12.90;84.70;;;;;;5008604;28;1253;-70
2022/11/02 03:34:18;;;;;;;;;;;12.80;84.70;;;;;;5003628;28;1029;-71
2022/11/02 03:36:48;;;;;;;;;;;12.70;84.40;;;;;;5008042;28;1919;-70
2022/11/02 03:39:18;;;;;;;;;;;12.70;85.20;;;;;;5003565;28;1072;-71
2022/11/02 03:41:46;;;;;;;;;;;13.10;84.70;;;;;;5004191;28;1251;-71
2022/11/02 03:44:15;;;;;;;;;;;12.80;84.50;;;;;;5008416;28;954;-70
2022/11/02 03:46:44;;;;;;;;;;;12.80;84.50;;;;;;5008039;28;1503;-71
2022/11/02 03:49:13;;;;;;;;;;;12.80;84.40;;;;;;5007860;28;994;-72
2022/11/02 03:51:43;;;;;;;;;;;12.80;84.80;;;;;;5007892;28;1628;-71
2022/11/02 03:54:13;;;;;;;;;;;12.80;84.30;;;;;;5003040;28;1002;-71
2022/11/02 03:56:42;;;;;;;;;;;12.80;84.70;;;;;;5002010;28;1993;-71
2022/11/02 03:59:10;;;;;;;;;;;12.80;84.50;;;;;;5002703;28;962;-70
2022/11/02 04:01:40;;;;;;;;;;;12.80;84.10;;;;;;5005226;28;1291;-68
2022/11/02 04:04:09;;;;;;;;;;;12.90;84.50;;;;;;5006621;28;2166;-70
2022/11/02 04:06:37;;;;;;;;;;;12.90;84.40;;;;;;5006698;28;989;-75
2022/11/02 04:09:05;;;;;;;;;;;12.80;84.50;;;;;;5004413;28;994;-76
2022/11/02 04:19:49;;;;;;;;;;;12.80;85.00;;;;;;5006020;28;1025;-71
2022/11/02 04:25:20;;;;;;;;;;;12.80;84.90;;;;;;5024107;28;1081;-70
2022/11/02 04:27:49;;;;;;;;;;;12.80;85.30;;;;;;5007060;28;1237;-73
2022/11/02 04:30:18;;;;;;;;;;;12.80;85.30;;;;;;5007481;28;1198;-71
2022/11/02 04:35:33;;;;;;;;;;;12.80;85.60;;;;;;5010194;28;1025;-69
2022/11/02 04:40:46;;;;;;;;;;;12.70;85.20;;;;;;5004273;28;1437;-72
2022/11/02 04:43:13;;;;;;;;;;;12.70;85.80;;;;;;5002996;28;965;-74
2022/11/02 04:45:41;;;;;;;;;;;12.90;85.60;;;;;;5004239;28;942;-75
2022/11/02 04:48:09;;;;;;;;;;;12.70;85.40;;;;;;5005995;28;2418;-72
2022/11/02 04:50:38;;;;;;;;;;;12.70;86.10;;;;;;5013256;28;1185;-72
2022/11/02 04:53:07;;;;;;;;;;;12.70;85.90;;;;;;5005970;28;1208;-72
2022/11/02 04:55:35;;;;;;;;;;;12.60;85.90;;;;;;5008177;28;1049;-72
2022/11/02 04:58:02;;;;;;;;;;;12.60;85.70;;;;;;5005702;28;1914;-71
2022/11/02 05:00:31;;;;;;;;;;;12.50;86.00;;;;;;5005441;28;1201;-72
2022/11/02 05:02:58;;;;;;;;;;;12.60;86.10;;;;;;5008275;28;997;-70
2022/11/02 05:05:26;;;;;;;;;;;12.60;85.90;;;;;;5003685;28;1050;-71
2022/11/02 05:07:55;;;;;;;;;;;12.50;86.00;;;;;;5002531;28;1101;-70
2022/11/02 05:10:22;;;;;;;;;;;12.50;85.80;;;;;;5006342;28;1186;-70
2022/11/02 05:12:56;;;;;;;;;;;12.50;85.90;;;;;;5006656;28;2371;-70
2022/11/02 05:15:23;;;;;;;;;;;12.50;86.20;;;;;;5005682;28;1022;-70
2022/11/02 05:17:51;;;;;;;;;;;12.50;86.10;;;;;;5003296;28;1906;-72
2022/11/02 05:20:19;;;;;;;;;;;12.50;85.80;;;;;;5007579;28;1401;-70
2022/11/02 05:22:46;;;;;;;;;;;12.40;86.00;;;;;;5004234;28;1221;-70
2022/11/02 05:25:15;;;;;;;;;;;12.50;86.20;;;;;;5006838;28;1048;-70
2022/11/02 05:27:43;;;;;;;;;;;12.50;86.10;;;;;;5007973;28;1040;-71
2022/11/02 05:30:11;;;;;;;;;;;12.50;86.00;;;;;;5004166;28;2505;-71
2022/11/02 05:32:39;;;;;;;;;;;12.60;86.00;;;;;;5008127;28;1204;-70
2022/11/02 05:35:07;;;;;;;;;;;12.60;86.10;;;;;;5008723;28;1247;-70
2022/11/02 05:37:34;;;;;;;;;;;12.60;86.10;;;;;;5016243;28;1993;-71
2022/11/02 05:40:02;;;;;;;;;;;12.60;86.00;;;;;;5014869;28;1108;-70
2022/11/02 05:42:31;;;;;;;;;;;12.60;86.50;;;;;;5011664;28;1235;-69
2022/11/02 05:44:59;;;;;;;;;;;12.50;86.60;;;;;;5008687;28;1319;-69
2022/11/02 05:47:26;;;;;;;;;;;12.50;87.50;;;;;;5011133;28;1037;-70
2022/11/02 05:49:54;;;;;;;;;;;12.50;87.20;;;;;;5005047;28;1174;-71
2022/11/02 05:52:21;;;;;;;;;;;12.40;87.30;;;;;;5005920;28;1208;-70
2022/11/02 05:54:49;;;;;;;;;;;12.30;87.60;;;;;;5004022;28;2362;-65
2022/11/02 05:57:17;;;;;;;;;;;12.30;88.00;;;;;;5003316;28;1914;-63
2022/11/02 05:59:46;;;;;;;;;;;12.40;89.20;;;;;;5010516;28;1033;-65
2022/11/02 06:02:16;;;;;;;;;;;12.40;89.50;;;;;;5006026;28;1500;-65
2022/11/02 06:04:43;;;;;;;;;;;12.40;89.00;;;;;;5005670;28;1405;-65
2022/11/02 06:07:11;;;;;;;;;;;12.50;91.20;;;;;;5005068;28;1155;-67
2022/11/02 06:09:39;;;;;;;;;;;12.50;88.40;;;;;;5004561;28;1013;-65
2022/11/02 06:12:07;;;;;;;;;;;12.40;89.00;;;;;;5002038;28;1349;-66
2022/11/02 06:14:34;;;;;;;;;;;12.40;89.00;;;;;;5006616;28;1395;-66
2022/11/02 06:17:03;;;;;;;;;;;12.50;90.20;;;;;;5003255;28;1073;-66
2022/11/02 06:19:31;;;;;;;;;;;12.70;89.40;;;;;;5009921;28;2254;-66
2022/11/02 06:21:58;;;;;;;;;;;12.70;89.70;;;;;;5006288;28;1190;-65
2022/11/02 06:24:26;;;;;;;;;;;13.00;90.00;;;;;;5009868;28;1021;-66
2022/11/02 06:26:54;;;;;;;;;;;13.10;86.20;;;;;;5008248;28;1151;-64
2022/11/02 06:29:21;;;;;;;;;;;13.00;87.20;;;;;;5007187;28;2267;-64
2022/11/02 06:31:49;;;;;;;;;;;12.80;87.30;;;;;;5010991;28;2157;-63
2022/11/02 06:34:18;;;;;;;;;;;12.90;90.20;;;;;;5021875;28;994;-64
2022/11/02 06:36:45;;;;;;;;;;;13.30;90.20;;;;;;5007259;28;2414;-64
2022/11/02 06:39:13;;;;;;;;;;;13.40;88.80;;;;;;5006462;28;1910;-63
2022/11/02 06:41:41;;;;;;;;;;;13.40;87.80;;;;;;5002031;28;2425;-62
2022/11/02 06:44:08;;;;;;;;;;;13.40;88.40;;;;;;5006925;28;1101;-70
2022/11/02 06:46:36;;;;;;;;;;;13.30;86.50;;;;;;5008098;28;1005;-66
2022/11/02 06:49:03;;;;;;;;;;;13.10;86.70;;;;;;5004122;28;1013;-68
2022/11/02 06:51:32;;;;;;;;;;;13.00;86.90;;;;;;5009862;28;1557;-68
2022/11/02 06:54:00;;;;;;;;;;;13.00;87.40;;;;;;5005674;28;1026;-67
2022/11/02 06:56:35;;;;;;;;;;;12.80;88.10;;;;;;5005190;28;1097;-68
2022/11/02 06:59:02;;;;;;;;;;;12.80;87.90;;;;;;5008944;28;1934;-67
2022/11/02 07:01:30;;;;;;;;;;;12.80;88.40;;;;;;5005193;28;1235;-66
2022/11/02 07:03:57;;;;;;;;;;;12.80;88.40;;;;;;5004100;28;993;-67
2022/11/02 07:06:25;;;;;;;;;;;13.00;88.90;;;;;;5006701;28;1037;-67
2022/11/02 07:08:54;;;;;;;;;;;12.80;88.90;;;;;;5003530;28;2386;-66
2022/11/02 07:11:22;;;;;;;;;;;12.90;88.80;;;;;;5005219;28;1248;-68
2022/11/02 07:13:49;;;;;;;;;;;12.90;88.80;;;;;;5007763;28;1049;-67
2022/11/02 07:16:17;;;;;;;;;;;12.90;88.70;;;;;;5000569;28;1686;-68
2022/11/02 07:18:44;;;;;;;;;;;13.00;88.80;;;;;;5004839;28;1993;-67
2022/11/02 07:21:12;;;;;;;;;;;13.00;88.60;;;;;;5006706;28;1474;-67
2022/11/02 07:23:40;;;;;;;;;;;13.00;88.60;;;;;;5012053;28;1520;-67
2022/11/02 07:26:09;;;;;;;;;;;13.00;88.10;;;;;;5010118;28;1136;-67
2022/11/02 07:28:37;;;;;;;;;;;13.00;88.20;;;;;;5010695;28;1080;-68
2022/11/02 07:31:05;;;;;;;;;;;13.00;88.10;;;;;;5018010;28;1347;-67
2022/11/02 07:33:32;;;;;;;;;;;13.00;87.90;;;;;;5009337;28;1153;-67
2022/11/02 07:36:02;;;;;;;;;;;13.10;87.50;;;;;;5011779;28;996;-68
2022/11/02 07:38:30;;;;;;;;;;;13.10;87.30;;;;;;5009801;28;1983;-66
2022/11/02 07:40:57;;;;;;;;;;;13.20;87.00;;;;;;5007121;28;1972;-67
2022/11/02 07:43:26;;;;;;;;;;;13.20;86.60;;;;;;5006937;28;1847;-66
2022/11/02 07:45:55;;;;;;;;;;;13.30;86.50;;;;;;5013263;28;2110;-68
2022/11/02 07:48:22;;;;;;;;;;;13.30;86.40;;;;;;5008243;28;1176;-68
2022/11/02 07:50:50;;;;;;;;;;;13.40;85.80;;;;;;5006262;28;1257;-67
2022/11/02 07:53:17;;;;;;;;;;;13.40;85.80;;;;;;5010119;28;2350;-66
2022/11/02 07:55:45;;;;;;;;;;;13.40;85.70;;;;;;5005025;28;1011;-68
2022/11/02 07:58:13;;;;;;;;;;;13.40;85.50;;;;;;5006483;28;1914;-67
2022/11/02 08:00:42;;;;;;;;;;;13.50;85.40;;;;;;5005276;28;1271;-67
2022/11/02 08:03:11;;;;;;;;;;;13.50;85.90;;;;;;5009252;28;771;-67
2022/11/02 08:05:40;;;;;;;;;;;13.60;85.40;;;;;;5006643;28;1145;-66
2022/11/02 08:08:08;;;;;;;;;;;13.60;85.10;;;;;;5008756;28;1077;-68
2022/11/02 08:10:36;;;;;;;;;;;13.60;84.70;;;;;;5009952;28;1329;-68
2022/11/02 08:13:07;;;;;;;;;;;13.60;84.30;;;;;;5013330;28;1148;-68
2022/11/02 08:15:35;;;;;;;;;;;13.70;84.50;;;;;;5008057;28;1072;-71
2022/11/02 08:18:05;;;;;;;;;;;13.70;84.10;;;;;;5003894;28;1037;-68
2022/11/02 08:20:34;;;;;;;;;;;13.80;84.20;;;;;;5003632;28;1985;-66
2022/11/02 08:23:02;;;;;;;;;;;13.80;84.00;;;;;;5006607;28;1053;-66
2022/11/02 08:25:30;;;;;;;;;;;13.80;84.00;;;;;;5003516;28;1029;-66
2022/11/02 08:27:58;;;;;;;;;;;13.80;83.80;;;;;;5000690;28;1018;-66
2022/11/02 08:30:27;;;;;;;;;;;13.80;83.40;;;;;;5006273;28;997;-67
2022/11/02 08:32:55;;;;;;;;;;;13.90;83.50;;;;;;5006203;28;1001;-67
2022/11/02 08:35:25;;;;;;;;;;;13.80;83.10;;;;;;5005495;28;1349;-66
2022/11/02 08:37:53;;;;;;;;;;;14.00;83.00;;;;;;5003347;28;1040;-66
2022/11/02 08:40:20;;;;;;;;;;;13.80;82.50;;;;;;5007314;28;2005;-66
2022/11/02 08:42:48;;;;;;;;;;;13.80;82.80;;;;;;5010075;28;1283;-66
2022/11/02 08:45:16;;;;;;;;;;;13.80;82.70;;;;;;5003775;28;1012;-66
2022/11/02 08:47:44;;;;;;;;;;;13.80;83.20;;;;;;5003113;28;1049;-65
2022/11/02 08:50:12;;;;;;;;;;;13.70;82.80;;;;;;5001245;28;1048;-64
2022/11/02 08:52:41;;;;;;;;;;;13.90;83.00;;;;;;5003071;28;1258;-66
2022/11/02 08:55:09;;;;;;;;;;;14.00;82.50;;;;;;5005832;28;1569;-66
2022/11/02 08:57:44;;;;;;;;;;;14.10;82.20;;;;;;5004513;28;1101;-67
2022/11/02 09:00:12;;;;;;;;;;;14.10;82.10;;;;;;5000376;28;1958;-67
2022/11/02 09:02:39;;;;;;;;;;;14.00;82.30;;;;;;5003550;28;1846;-65
2022/11/02 09:05:07;;;;;;;;;;;13.90;82.10;;;;;;5003841;28;1015;-65
2022/11/02 09:07:35;;;;;;;;;;;14.00;82.00;;;;;;5002819;28;1077;-66
2022/11/02 09:10:04;;;;;;;;;;;14.10;82.40;;;;;;5002865;28;1078;-66
2022/11/02 09:12:32;;;;;;;;;;;14.20;81.60;;;;;;5008782;28;1485;-65
2022/11/02 09:15:00;;;;;;;;;;;14.20;81.30;;;;;;5006171;28;970;-66
2022/11/02 09:17:28;;;;;;;;;;;14.20;81.70;;;;;;5005649;28;1078;-66
2022/11/02 09:19:56;;;;;;;;;;;14.20;81.50;;;;;;5003985;28;2025;-66
2022/11/02 09:22:24;;;;;;;;;;;14.10;81.40;;;;;;5003979;28;1431;-66
2022/11/02 09:24:52;;;;;;;;;;;14.30;81.70;;;;;;5007011;28;986;-66
2022/11/02 09:27:21;;;;;;;;;;;14.30;81.50;;;;;;5000849;28;1136;-67
2022/11/02 09:29:48;;;;;;;;;;;14.30;81.60;;;;;;5002278;28;993;-66
2022/11/02 09:32:16;;;;;;;;;;;14.20;81.40;;;;;;5004917;28;1395;-66
2022/11/02 09:34:46;;;;;;;;;;;14.30;81.50;;;;;;5002232;28;1070;-66
2022/11/02 09:37:13;;;;;;;;;;;14.40;81.00;;;;;;5006305;28;1196;-66
2022/11/02 09:39:41;;;;;;;;;;;14.50;80.80;;;;;;5003745;28;1914;-65
2022/11/02 09:42:14;;;;;;;;;;;14.40;80.70;;;;;;5002980;28;1542;-67
2022/11/02 09:44:47;;;;;;;;;;;14.40;80.70;;;;;;5003800;28;1211;-66
2022/11/02 09:47:15;;;;;;;;;;;14.30;81.20;;;;;;5006601;28;1537;-68
2022/11/02 09:50:03;;;;;;;;;;;14.20;81.30;;;;;;5002290;28;1354;-66
2022/11/02 09:52:33;;;;;;;;;;;14.10;80.80;;;;;;5002323;28;1276;-65
2022/11/02 09:55:02;;;;;;;;;;;14.10;80.70;;;;;;5001609;28;1237;-67
2022/11/02 09:57:32;;;;;;;;;;;14.10;80.60;;;;;;5001053;28;733;-66
2022/11/02 10:00:01;;;;;;;;;;;14.10;81.10;;;;;;5001444;28;1993;-65
2022/11/02 10:02:36;;;;;;;;;;;14.20;80.70;;;;;;5000366;28;1268;-65
2022/11/02 10:05:15;;;;;;;;;;;14.10;80.50;;;;;;5004712;28;1164;-66
2022/11/02 10:07:50;;;;;;;;;;;14.20;80.40;;;;;;5002538;28;1094;-66
2022/11/02 10:10:25;;;;;;;;;;;13.90;82.10;;;;;;5002094;28;1145;-66
2022/11/02 10:12:57;;;;;;;;;;;14.00;83.00;;;;;;5005494;28;1379;-65
2022/11/02 10:15:28;;;;;;;;;;;14.00;82.80;;;;;;5003554;28;1177;-66
2022/11/02 10:17:58;;;;;;;;;;;14.00;82.50;;;;;;5000660;28;1017;-65
2022/11/02 10:20:27;;;;;;;;;;;13.80;85.10;;;;;;5004543;28;1910;-67
2022/11/02 10:22:58;;;;;;;;;;;13.50;87.70;;;;;;5002206;28;1875;-66
2022/11/02 10:25:26;;;;;;;;;;;13.10;90.70;;;;;;5003747;28;1093;-65
2022/11/02 10:28:00;;;;;;;;;;;12.70;91.40;;;;;;5003094;28;998;-67
2022/11/02 10:30:29;;;;;;;;;;;12.70;92.30;;;;;;5005195;28;1171;-65
2022/11/02 10:32:57;;;;;;;;;;;12.30;93.00;;;;;;5006577;28;1073;-65
2022/11/02 10:35:30;;;;;;;;;;;11.90;92.50;;;;;;5004180;28;1057;-65
2022/11/02 10:38:25;;;;;;;;;;;11.70;92.20;;;;;;5001180;28;1748;-65
2022/11/02 10:41:07;;;;;;;;;;;11.50;94.10;;;;;;5001042;28;1918;-66
2022/11/02 10:43:43;;;;;;;;;;;11.40;94.80;;;;;;5002646;28;1102;-67
2022/11/02 10:46:30;;;;;;;;;;;11.60;96.20;;;;;;5002439;28;1010;-66
2022/11/02 10:49:03;;;;;;;;;;;11.80;96.00;;;;;;5003891;28;1524;-67
2022/11/02 10:51:31;;;;;;;;;;;12.10;96.20;;;;;;5011121;28;1373;-67
2022/11/02 10:53:59;;;;;;;;;;;12.20;96.20;;;;;;5006940;28;1026;-67
2022/11/02 10:56:30;;;;;;;;;;;12.40;95.80;;;;;;5002890;28;1001;-65
2022/11/02 10:59:02;;;;;;;;;;;12.50;95.60;;;;;;5008103;28;1029;-65
2022/11/02 11:01:31;;;;;;;;;;;12.60;94.90;;;;;;5000715;28;1903;-66
2022/11/02 11:04:00;;;;;;;;;;;12.70;94.20;;;;;;5000787;28;754;-67
2022/11/02 11:06:29;;;;;;;;;;;12.90;94.80;;;;;;5006427;28;1042;-65
2022/11/02 11:09:00;;;;;;;;;;;13.00;94.30;;;;;;5008171;28;1014;-65
2022/11/02 11:11:30;;;;;;;;;;;12.80;93.20;;;;;;5011403;28;1316;-66
2022/11/02 11:13:59;;;;;;;;;;;12.70;94.20;;;;;;5015103;28;1105;-65
2022/11/02 11:16:49;;;;;;;;;;;12.80;94.20;;;;;;5011315;28;1649;-65
2022/11/02 11:19:21;;;;;;;;;;;12.90;93.30;;;;;;5005970;28;1090;-65
2022/11/02 11:22:23;;;;;;;;;;;13.00;92.70;;;;;;5009111;28;1914;-66
2022/11/02 11:24:51;;;;;;;;;;;13.10;92.80;;;;;;5006785;28;1444;-72
2022/11/02 11:27:19;;;;;;;;;;;13.20;92.40;;;;;;5003512;28;1190;-72
2022/11/02 11:29:52;;;;;;;;;;;13.10;92.50;;;;;;5003318;28;1444;-72
2022/11/02 11:32:22;;;;;;;;;;;12.90;92.00;;;;;;5004821;28;1326;-71
2022/11/02 11:34:58;;;;;;;;;;;12.80;91.70;;;;;;5006628;28;1615;-65
2022/11/02 11:37:26;;;;;;;;;;;12.80;91.60;;;;;;5006105;28;1005;-68
2022/11/02 11:39:56;;;;;;;;;;;12.80;91.00;;;;;;5005691;28;1156;-68
2022/11/02 11:42:25;;;;;;;;;;;12.80;91.20;;;;;;5005222;28;1902;-68
2022/11/02 11:44:56;;;;;;;;;;;12.80;91.40;;;;;;5003111;28;1251;-69
2022/11/02 11:47:27;;;;;;;;;;;12.80;91.70;;;;;;5008519;28;1119;-69
2022/11/02 11:49:55;;;;;;;;;;;12.80;92.20;;;;;;5005836;28;1383;-69
2022/11/02 11:52:40;;;;;;;;;;;13.00;92.00;;;;;;5002381;28;1405;-68
2022/11/02 11:55:23;;;;;;;;;;;12.90;91.90;;;;;;5003526;28;1601;-69
2022/11/02 11:58:06;;;;;;;;;;;12.90;91.00;;;;;;5000749;28;1063;-69
2022/11/02 12:00:34;;;;;;;;;;;12.80;91.00;;;;;;5003517;28;1879;-69
2022/11/02 12:03:05;;;;;;;;;;;12.90;91.60;;;;;;5003759;28;1061;-69
2022/11/02 12:05:38;;;;;;;;;;;12.90;90.90;;;;;;5007267;28;1517;-67
2022/11/02 12:08:13;;;;;;;;;;;12.90;90.30;;;;;;5009551;28;1117;-69
2022/11/02 12:10:51;;;;;;;;;;;12.80;89.20;;;;;;5003556;28;1592;-68
2022/11/02 12:13:25;;;;;;;;;;;12.90;90.30;;;;;;5002584;28;1592;-68
2022/11/02 12:15:59;;;;;;;;;;;12.80;90.10;;;;;;5008208;28;1301;-68
2022/11/02 12:18:33;;;;;;;;;;;12.70;90.10;;;;;;5006352;28;1076;-67
2022/11/02 12:21:09;;;;;;;;;;;12.60;90.00;;;;;;5005567;28;1888;-67
2022/11/02 12:23:45;;;;;;;;;;;12.60;90.30;;;;;;5003755;28;1811;-67
2022/11/02 12:26:22;;;;;;;;;;;12.50;90.30;;;;;;5002681;28;1139;-67
2022/11/02 12:28:55;;;;;;;;;;;12.40;90.20;;;;;;5002245;28;1472;-67
2022/11/02 12:31:29;;;;;;;;;;;12.60;89.60;;;;;;5005800;28;1250;-67
2022/11/02 12:34:04;;;;;;;;;;;12.70;90.10;;;;;;5008043;28;1986;-67
2022/11/02 12:36:40;;;;;;;;;;;12.80;90.20;;;;;;5005657;28;1001;-68
2022/11/02 12:39:30;;;;;;;;;;;13.00;89.10;;;;;;5005389;28;1510;-67
2022/11/02 12:42:11;;;;;;;;;;;13.00;89.50;;;;;;5006944;28;1915;-70
2022/11/02 12:44:45;;;;;;;;;;;13.00;88.20;;;;;;5006981;28;1525;-67
2022/11/02 12:47:17;;;;;;;;;;;13.20;87.50;;;;;;5002470;28;1022;-67
2022/11/02 12:49:50;;;;;;;;;;;13.10;87.70;;;;;;5003195;28;1742;-69
2022/11/02 12:52:29;;;;;;;;;;;13.30;87.50;;;;;;5002054;28;1273;-68
2022/11/02 12:54:57;;;;;;;;;;;13.30;84.70;;;;;;5003154;28;1353;-69
2022/11/02 12:57:27;;;;;;;;;;;13.50;85.90;;;;;;5004847;28;1134;-68
2022/11/02 13:00:06;;;;;;;;;;;13.60;84.00;;;;;;5012136;28;1128;-68
2022/11/02 13:02:45;;;;;;;;;;;13.70;82.50;;;;;;5006037;28;1914;-67
2022/11/02 13:05:17;;;;;;;;;;;13.70;81.90;;;;;;5002813;28;1085;-69
2022/11/02 13:07:47;;;;;;;;;;;13.70;82.00;;;;;;5003715;28;1038;-67
2022/11/02 13:10:16;;;;;;;;;;;13.90;83.30;;;;;;5000811;28;1414;-69
2022/11/02 13:12:45;;;;;;;;;;;13.70;81.30;;;;;;5005913;28;1285;-67
2022/11/02 13:15:14;;;;;;;;;;;13.80;81.50;;;;;;5002799;28;1006;-68
2022/11/02 13:17:44;;;;;;;;;;;13.80;81.50;;;;;;4999074;28;1717;-67
2022/11/02 13:20:15;;;;;;;;;;;13.60;80.90;;;;;;5001952;28;1783;-67
2022/11/02 13:22:46;;;;;;;;;;;13.80;81.40;;;;;;4997786;28;1958;-67
2022/11/02 13:25:15;;;;;;;;;;;13.80;81.00;;;;;;5001061;28;1629;-68
2022/11/02 13:27:47;;;;;;;;;;;13.70;80.30;;;;;;5005229;28;1663;-67
2022/11/02 13:30:15;;;;;;;;;;;13.70;80.40;;;;;;5005565;28;1018;-66
2022/11/02 13:32:44;;;;;;;;;;;13.50;80.90;;;;;;5004488;28;1387;-66
2022/11/02 13:35:19;;;;;;;;;;;13.70;82.10;;;;;;5003002;28;1912;-66
2022/11/02 13:37:49;;;;;;;;;;;13.60;82.20;;;;;;5006757;28;1013;-66
2022/11/02 13:40:21;;;;;;;;;;;13.60;81.50;;;;;;5001826;28;1252;-66
2022/11/02 13:43:06;;;;;;;;;;;13.50;81.70;;;;;;5005619;28;1914;-65
2022/11/02 13:45:43;;;;;;;;;;;13.40;82.40;;;;;;5003088;28;1089;-66
2022/11/02 13:48:22;;;;;;;;;;;13.60;82.70;;;;;;5004589;28;1014;-67
2022/11/02 13:50:52;;;;;;;;;;;13.50;81.80;;;;;;5003469;28;1545;-67
2022/11/02 13:53:21;;;;;;;;;;;13.50;81.70;;;;;;5000491;28;1041;-67
2022/11/02 13:55:53;;;;;;;;;;;13.50;81.40;;;;;;5003313;28;1093;-69
2022/11/02 13:58:23;;;;;;;;;;;13.50;81.80;;;;;;5005463;28;1398;-66
2022/11/02 14:00:51;;;;;;;;;;;13.60;82.10;;;;;;5008000;28;1238;-67
2022/11/02 14:03:21;;;;;;;;;;;13.60;82.00;;;;;;5004574;28;2001;-67
2022/11/02 14:05:52;;;;;;;;;;;13.70;81.80;;;;;;5011405;28;1169;-71
2022/11/02 14:08:22;;;;;;;;;;;13.70;81.50;;;;;;5008109;28;1045;-70
2022/11/02 14:11:02;;;;;;;;;;;13.90;81.00;;;;;;5003981;28;1314;-69
2022/11/02 14:13:49;;;;;;;;;;;13.70;80.70;;;;;;5001566;28;1726;-67
2022/11/02 14:16:31;;;;;;;;;;;13.60;80.80;;;;;;5002577;28;1731;-67
2022/11/02 14:19:13;;;;;;;;;;;13.50;81.90;;;;;;5002832;28;1661;-67
2022/11/02 14:22:05;;;;;;;;;;;13.60;82.70;;;;;;4999898;28;1906;-66
2022/11/02 14:24:54;;;;;;;;;;;13.70;81.80;;;;;;5003633;28;1432;-65
2022/11/02 14:27:28;;;;;;;;;;;13.60;81.80;;;;;;4996900;28;1295;-67
2022/11/02 14:29:56;;;;;;;;;;;13.60;81.40;;;;;;5002303;28;1052;-66
2022/11/02 14:32:39;;;;;;;;;;;13.60;81.70;;;;;;5001499;28;1313;-67
2022/11/02 14:35:18;;;;;;;;;;;13.40;81.50;;;;;;5003356;28;1517;-68
2022/11/02 14:37:54;;;;;;;;;;;13.30;82.00;;;;;;5003630;28;1668;-67
2022/11/02 14:40:26;;;;;;;;;;;13.50;82.60;;;;;;5002485;28;1699;-70
2022/11/02 14:43:08;;;;;;;;;;;13.20;83.00;;;;;;5003301;28;1914;-68
2022/11/02 14:45:45;;;;;;;;;;;13.60;82.60;;;;;;5004458;28;1001;-69
2022/11/02 14:48:14;;;;;;;;;;;13.30;81.30;;;;;;5008178;28;1188;-68
2022/11/02 14:50:43;;;;;;;;;;;13.30;81.20;;;;;;5003382;28;1412;-69
2022/11/02 14:53:20;;;;;;;;;;;13.30;80.70;;;;;;5009774;28;1069;-68
2022/11/02 14:55:52;;;;;;;;;;;13.20;81.20;;;;;;5011778;28;1041;-68
2022/11/02 14:58:20;;;;;;;;;;;13.10;80.10;;;;;;5014847;28;1096;-67
2022/11/02 15:00:58;;;;;;;;;;;13.20;79.40;;;;;;5005808;28;1222;-68
2022/11/02 15:03:32;;;;;;;;;;;13.10;78.70;;;;;;5010129;28;1997;-68
2022/11/02 15:06:02;;;;;;;;;;;13.10;79.20;;;;;;5017406;28;1037;-68
2022/11/02 15:08:33;;;;;;;;;;;13.00;78.60;;;;;;5018684;28;1827;-69
2022/11/02 15:11:26;;;;;;;;;;;12.90;78.00;;;;;;5025515;28;1220;-68
2022/11/02 15:13:54;;;;;;;;;;;13.00;78.60;;;;;;5005402;28;992;-68